createdAt,value
2018-11-23T00:00:17.564Z,22.73
2018-11-23T00:02:47.030Z,22.27
2018-11-23T00:05:15.749Z,25.60
2018-11-23T00:07:44.777Z,22.87
2018-11-23T00:10:14.990Z,24.23
2018-11-23T00:12:43.937Z,24.70
2018-11-23T00:15:20.260Z,22.90
2018-11-23T00:17:49.253Z,20.70
2018-11-23T00:20:20.164Z,22.98
2018-11-23T00:22:49.086Z,21.10
2018-11-23T00:25:18.969Z,24.07
2018-11-23T00:27:48.290Z,24.70
2018-11-23T00:30:18.951Z,25.40
2018-11-23T00:32:48.209Z,22.37
2018-11-23T00:35:18.538Z,24.10
2018-11-23T00:37:47.716Z,22.90
2018-11-23T00:40:20.618Z,24.70
2018-11-23T00:42:49.599Z,22.73
2018-11-23T00:45:18.297Z,26.37
2018-11-23T00:47:47.789Z,27.60
2018-11-23T00:50:18.021Z,29.70
2018-11-23T00:52:47.124Z,27.13
2018-11-23T00:55:17.025Z,24.00
2018-11-23T00:57:45.717Z,25.20
2018-11-23T01:00:20.335Z,27.32
2018-11-23T01:02:49.042Z,23.00
2018-11-23T01:05:18.501Z,24.15
2018-11-23T01:07:47.851Z,26.03
2018-11-23T01:10:18.137Z,26.80
2018-11-23T01:12:47.954Z,25.43
2018-11-23T01:15:16.676Z,25.37
2018-11-23T01:17:45.395Z,25.53
2018-11-23T01:20:16.976Z,24.07
2018-11-23T01:22:45.929Z,24.20
2018-11-23T01:25:15.794Z,25.67
2018-11-23T01:27:45.403Z,26.30
2018-11-23T01:30:17.535Z,27.30
2018-11-23T01:32:46.341Z,22.03
2018-11-23T01:35:15.629Z,24.83
2018-11-23T01:37:44.348Z,25.00
2018-11-23T01:40:16.148Z,26.77
2018-11-23T01:42:45.269Z,26.25
2018-11-23T01:45:14.464Z,27.63
2018-11-23T01:47:43.269Z,25.77
2018-11-23T01:50:14.872Z,24.10
2018-11-23T01:52:44.501Z,24.60
2018-11-23T01:55:14.138Z,27.15
2018-11-23T01:57:43.318Z,22.23
2018-11-23T02:00:14.573Z,23.67
2018-11-23T02:02:43.656Z,24.10
2018-11-23T02:05:12.401Z,20.67
2018-11-23T02:07:41.125Z,27.07
2018-11-23T02:10:11.256Z,26.25
2018-11-23T02:12:39.969Z,25.87
2018-11-23T02:15:10.394Z,23.30
2018-11-23T02:17:39.113Z,21.90
2018-11-23T02:20:09.485Z,24.07
2018-11-23T02:22:38.267Z,21.30
2018-11-23T02:25:07.284Z,21.13
2018-11-23T02:27:36.292Z,25.33
2018-11-23T02:30:09.813Z,24.70
2018-11-23T02:32:38.740Z,22.00
2018-11-23T02:35:07.464Z,20.03
2018-11-23T02:37:36.185Z,22.50
2018-11-23T02:40:06.663Z,23.57
2018-11-23T02:42:35.380Z,23.03
2018-11-23T02:45:05.829Z,23.92
2018-11-23T02:47:35.881Z,24.00
2018-11-23T02:50:05.452Z,24.47
2018-11-23T02:52:34.158Z,23.75
2018-11-23T02:55:02.889Z,21.90
2018-11-23T02:57:31.717Z,24.27
2018-11-23T03:00:00.444Z,19.13
2018-11-23T03:02:29.160Z,23.30
2018-11-23T03:04:57.868Z,22.10
2018-11-23T03:07:26.823Z,19.87
2018-11-23T03:09:55.614Z,25.07
2018-11-23T03:12:24.317Z,21.47
2018-11-23T03:14:53.052Z,21.43
2018-11-23T03:17:21.958Z,28.50
2018-11-23T03:19:51.238Z,20.97
2018-11-23T03:22:19.935Z,20.17
2018-11-23T03:24:48.649Z,19.87
2018-11-23T03:27:17.381Z,20.83
2018-11-23T03:29:46.165Z,23.40
2018-11-23T03:32:14.989Z,20.30
2018-11-23T03:34:43.865Z,23.87
2018-11-23T03:37:12.569Z,20.60
2018-11-23T03:39:41.285Z,23.43
2018-11-23T03:42:10.632Z,19.93
2018-11-23T03:44:39.320Z,22.60
2018-11-23T03:47:08.046Z,22.67
2018-11-23T03:49:36.776Z,23.87
2018-11-23T03:52:05.485Z,23.07
2018-11-23T03:54:34.249Z,23.17
2018-11-23T03:57:02.950Z,22.07
2018-11-23T03:59:31.653Z,21.53
2018-11-23T04:02:00.729Z,20.30
2018-11-23T04:04:29.448Z,20.13
2018-11-23T04:06:59.209Z,22.17
2018-11-23T04:09:27.921Z,22.73
2018-11-23T04:11:56.625Z,20.03
2018-11-23T04:14:25.394Z,21.90
2018-11-23T04:16:54.109Z,25.13
2018-11-23T04:19:22.969Z,24.43
2018-11-23T04:21:51.695Z,25.40
2018-11-23T04:24:20.462Z,23.18
2018-11-23T04:26:49.168Z,28.53
2018-11-23T04:29:17.902Z,22.67
2018-11-23T04:31:46.635Z,24.93
2018-11-23T04:34:15.372Z,20.92
2018-11-23T04:36:44.078Z,23.33
2018-11-23T04:39:12.803Z,22.15
2018-11-23T04:41:46.282Z,21.77
2018-11-23T04:44:10.211Z,21.40
2018-11-23T04:46:39.085Z,23.00
2018-11-23T04:49:07.838Z,26.53
2018-11-23T04:51:36.561Z,22.10
2018-11-23T04:54:05.672Z,26.23
2018-11-23T04:56:34.377Z,22.23
2018-11-23T04:59:03.647Z,22.70
2018-11-23T05:01:32.584Z,23.23
2018-11-23T05:04:01.296Z,20.90
2018-11-23T05:06:30.072Z,23.70
2018-11-23T05:08:58.784Z,23.10
2018-11-23T05:11:27.484Z,22.47
2018-11-23T05:13:56.188Z,23.87
2018-11-23T05:16:24.917Z,22.07
2018-11-23T05:18:54.143Z,18.57
2018-11-23T05:21:22.859Z,22.13
2018-11-23T05:23:51.549Z,21.13
2018-11-23T05:26:20.493Z,21.60
2018-11-23T05:28:49.560Z,23.10
2018-11-23T05:31:18.267Z,21.30
2018-11-23T05:33:46.949Z,22.07
2018-11-23T05:36:15.657Z,19.75
2018-11-23T05:38:44.673Z,22.53
2018-11-23T05:41:13.382Z,19.30
2018-11-23T05:43:42.122Z,19.33
2018-11-23T05:46:10.955Z,24.63
2018-11-23T05:48:39.664Z,20.17
2018-11-23T05:51:08.361Z,26.57
2018-11-23T05:53:37.448Z,22.23
2018-11-23T05:56:06.296Z,21.90
2018-11-23T05:58:34.989Z,21.03
2018-11-23T06:01:03.710Z,26.17
2018-11-23T06:03:32.397Z,25.75
2018-11-23T06:06:01.350Z,23.77
2018-11-23T06:08:30.293Z,25.00
2018-11-23T06:10:58.990Z,24.02
2018-11-23T06:13:27.937Z,24.37
2018-11-23T06:15:56.645Z,24.87
2018-11-23T06:18:37.585Z,23.13
2018-11-23T06:21:06.284Z,23.27
2018-11-23T06:23:35.001Z,25.30
2018-11-23T06:26:11.872Z,23.52
2018-11-23T06:28:40.532Z,27.45
2018-11-23T06:31:09.229Z,22.60
2018-11-23T06:33:40.225Z,23.37
2018-11-23T06:36:08.938Z,19.92
2018-11-23T06:38:37.871Z,20.80
2018-11-23T06:41:10.524Z,20.03
2018-11-23T06:43:36.370Z,24.20
2018-11-23T06:46:06.541Z,19.90
2018-11-23T06:48:35.246Z,21.93
2018-11-23T06:51:05.278Z,22.30
2018-11-23T06:53:33.968Z,22.40
2018-11-23T06:56:03.135Z,19.00
2018-11-23T06:58:31.814Z,18.07
2018-11-23T07:01:00.513Z,21.90
2018-11-23T07:03:29.317Z,25.73
2018-11-23T07:08:44.641Z,22.90
2018-11-23T07:11:13.608Z,19.20
2018-11-23T07:13:42.322Z,19.47
2018-11-23T07:16:11.024Z,20.10
2018-11-23T07:18:39.993Z,20.00
2018-11-23T07:21:08.731Z,23.00
2018-11-23T07:23:37.421Z,22.37
2018-11-23T07:26:06.236Z,21.37
2018-11-23T07:28:35.221Z,19.53
2018-11-23T07:31:04.748Z,20.80
2018-11-23T07:33:33.481Z,19.73
2018-11-23T07:36:02.197Z,21.07
2018-11-23T07:38:30.907Z,20.27
2018-11-23T07:41:11.008Z,24.50
2018-11-23T07:43:39.720Z,23.27
2018-11-23T07:46:08.437Z,25.97
2018-11-23T07:48:37.152Z,23.87
2018-11-23T07:51:06.008Z,23.80
2018-11-23T07:53:34.720Z,24.93
2018-11-23T07:56:03.417Z,26.70
2018-11-23T07:58:32.133Z,26.53
2018-11-23T08:01:00.842Z,26.50
2018-11-23T08:03:29.548Z,29.23
2018-11-23T08:05:58.286Z,28.00
2018-11-23T08:08:27.001Z,23.57
2018-11-23T08:10:54.913Z,26.67
2018-11-23T08:13:23.672Z,30.87
2018-11-23T08:15:52.385Z,33.77
2018-11-23T08:18:21.093Z,30.37
2018-11-23T08:20:49.789Z,28.57
2018-11-23T08:23:18.522Z,31.93
2018-11-23T08:25:47.217Z,32.33
2018-11-23T08:28:16.233Z,29.42
2018-11-23T08:30:44.940Z,35.70
2018-11-23T08:33:13.652Z,31.85
2018-11-23T08:35:42.361Z,35.03
2018-11-23T08:38:11.081Z,37.48
2018-11-23T08:40:39.817Z,34.93
2018-11-23T08:43:08.521Z,34.60
2018-11-23T08:45:37.230Z,33.00
2018-11-23T08:48:05.940Z,34.63
2018-11-23T08:50:34.649Z,36.50
2018-11-23T08:53:03.352Z,33.40
2018-11-23T08:55:32.096Z,37.73
2018-11-23T08:58:00.810Z,38.87
2018-11-23T09:00:29.597Z,39.43
2018-11-23T09:02:59.730Z,33.27
2018-11-23T09:05:28.461Z,31.07
2018-11-23T09:07:57.572Z,33.97
2018-11-23T09:10:27.706Z,35.93
2018-11-23T09:12:57.980Z,37.07
2018-11-23T09:15:26.711Z,36.13
2018-11-23T09:17:55.493Z,39.13
2018-11-23T09:20:24.137Z,38.03
2018-11-23T09:22:52.836Z,38.57
2018-11-23T09:25:22.516Z,36.28
2018-11-23T09:27:51.430Z,33.80
2018-11-23T09:30:22.418Z,39.87
2018-11-23T09:32:51.890Z,35.53
2018-11-23T09:35:20.711Z,37.78
2018-11-23T09:37:49.576Z,37.87
2018-11-23T09:40:22.542Z,37.70
2018-11-23T09:42:51.374Z,38.23
2018-11-23T09:45:22.652Z,39.48
2018-11-23T09:47:52.870Z,47.23
2018-11-23T09:50:22.593Z,38.20
2018-11-23T09:52:52.442Z,40.57
2018-11-23T09:55:21.747Z,43.13
2018-11-23T09:57:50.446Z,41.77
2018-11-23T10:00:20.487Z,40.37
2018-11-23T10:02:50.105Z,39.50
2018-11-23T10:05:19.206Z,38.42
2018-11-23T10:07:49.243Z,40.50
2018-11-23T10:10:18.912Z,40.83
2018-11-23T10:12:47.633Z,37.83
2018-11-23T10:15:17.324Z,40.03
2018-11-23T10:17:46.032Z,42.33
2018-11-23T10:20:20.529Z,40.47
2018-11-23T10:22:49.241Z,39.93
2018-11-23T10:25:19.384Z,38.92
2018-11-23T10:27:48.313Z,43.23
2018-11-23T10:30:20.257Z,45.38
2018-11-23T10:32:50.045Z,44.80
2018-11-23T10:35:18.757Z,40.73
2018-11-23T10:37:49.069Z,38.30
2018-11-23T10:40:19.137Z,40.30
2018-11-23T10:42:47.869Z,32.37
2018-11-23T10:45:18.349Z,40.80
2018-11-23T10:47:47.882Z,37.70
2018-11-23T10:50:18.621Z,37.00
2018-11-23T10:52:46.670Z,36.70
2018-11-23T10:55:17.518Z,42.27
2018-11-23T10:57:46.316Z,38.23
2018-11-23T11:00:21.748Z,36.23
2018-11-23T11:04:57.886Z,37.57
2018-11-23T11:07:26.605Z,34.80
2018-11-23T11:09:55.308Z,36.67
2018-11-23T11:12:24.032Z,33.65
2018-11-23T11:14:53.044Z,36.43
2018-11-23T11:17:21.809Z,38.53
2018-11-23T11:19:50.525Z,38.47
2018-11-23T11:22:19.240Z,41.40
2018-11-23T11:24:47.937Z,37.63
2018-11-23T11:27:16.741Z,39.05
2018-11-23T11:29:45.527Z,38.20
2018-11-23T11:32:14.236Z,37.85
2018-11-23T11:34:42.953Z,36.87
2018-11-23T11:37:11.660Z,40.53
2018-11-23T11:39:40.384Z,37.97
2018-11-23T11:42:09.432Z,40.83
2018-11-23T11:44:38.133Z,36.40
2018-11-23T11:47:06.961Z,36.13
2018-11-23T11:49:35.664Z,37.33
2018-11-23T11:52:05.654Z,38.80
2018-11-23T11:54:34.353Z,35.97
2018-11-23T11:57:03.181Z,38.40
2018-11-23T11:59:32.367Z,35.83
2018-11-23T12:02:01.070Z,34.47
2018-11-23T12:04:29.780Z,34.70
2018-11-23T12:06:58.508Z,34.77
2018-11-23T12:09:27.319Z,36.13
2018-11-23T12:11:56.022Z,36.33
2018-11-23T12:14:25.076Z,35.40
2018-11-23T12:16:53.837Z,36.48
2018-11-23T12:19:22.540Z,36.37
2018-11-23T12:21:51.497Z,31.53
2018-11-23T12:24:20.304Z,36.97
2018-11-23T12:26:49.008Z,36.87
2018-11-23T12:29:17.739Z,37.63
2018-11-23T12:31:46.440Z,39.10
2018-11-23T12:34:15.149Z,34.23
2018-11-23T12:36:43.856Z,34.60
2018-11-23T12:39:12.733Z,34.65
2018-11-23T12:41:41.433Z,32.83
2018-11-23T12:44:10.534Z,34.23
2018-11-23T12:46:39.244Z,33.97
2018-11-23T12:49:07.973Z,36.50
2018-11-23T12:51:36.672Z,31.63
2018-11-23T12:54:06.177Z,35.27
2018-11-23T12:56:34.900Z,36.27
2018-11-23T12:59:04.924Z,36.87
2018-11-23T13:01:34.268Z,39.60
2018-11-23T13:04:03.005Z,37.00
2018-11-23T13:06:31.754Z,34.23
2018-11-23T13:09:00.469Z,33.73
2018-11-23T13:11:29.173Z,32.33
2018-11-23T13:13:57.882Z,38.77
2018-11-23T13:16:26.587Z,35.20
2018-11-23T13:18:55.384Z,36.03
2018-11-23T13:21:24.341Z,38.83
2018-11-23T13:23:53.046Z,39.77
2018-11-23T13:26:21.745Z,35.53
2018-11-23T13:28:50.519Z,33.90
2018-11-23T13:31:19.200Z,34.50
2018-11-23T13:33:47.920Z,34.83
2018-11-23T13:36:16.641Z,38.40
2018-11-23T13:38:45.354Z,39.80
2018-11-23T13:41:14.060Z,39.30
2018-11-23T13:43:42.777Z,36.90
2018-11-23T13:46:11.484Z,31.30
2018-11-23T13:48:40.191Z,31.70
2018-11-23T13:51:08.913Z,34.97
2018-11-23T13:53:37.615Z,31.10
2018-11-23T13:56:06.661Z,38.23
2018-11-23T13:58:35.403Z,38.65
2018-11-23T14:01:04.953Z,54.70
2018-11-23T14:03:34.625Z,48.97
2018-11-23T14:06:02.371Z,39.90
2018-11-23T14:08:31.121Z,39.13
2018-11-23T14:10:59.840Z,40.57
2018-11-23T14:13:28.552Z,36.47
2018-11-23T14:15:57.283Z,33.07
2018-11-23T14:18:26.001Z,38.07
2018-11-23T14:20:54.716Z,44.17
2018-11-23T14:23:23.444Z,40.20
2018-11-23T14:25:52.213Z,38.97
2018-11-23T14:28:21.001Z,37.70
2018-11-23T14:30:49.737Z,32.63
2018-11-23T14:33:18.448Z,37.08
2018-11-23T14:35:47.165Z,32.87
2018-11-23T14:38:15.864Z,37.43
2018-11-23T14:40:50.088Z,37.30
2018-11-23T14:43:18.961Z,35.13
2018-11-23T14:45:47.678Z,36.13
2018-11-23T14:48:16.404Z,30.30
2018-11-23T14:50:48.519Z,33.33
2018-11-23T14:53:17.308Z,35.63
2018-11-23T14:55:45.997Z,41.40
2018-11-23T14:58:14.752Z,36.15
2018-11-23T15:00:43.536Z,36.77
2018-11-23T15:03:12.246Z,35.40
2018-11-23T15:05:40.937Z,38.97
2018-11-23T15:08:09.911Z,33.33
2018-11-23T15:10:38.612Z,30.47
2018-11-23T15:13:07.624Z,36.97
2018-11-23T15:15:38.232Z,32.73
2018-11-23T15:18:07.693Z,37.13
2018-11-23T15:20:39.820Z,31.47
2018-11-23T15:23:10.973Z,34.37
2018-11-23T15:25:40.028Z,35.43
2018-11-23T15:28:09.565Z,36.00
2018-11-23T15:30:39.231Z,37.43
2018-11-23T15:33:08.953Z,34.63
2018-11-23T15:35:38.433Z,35.10
2018-11-23T15:38:10.335Z,35.83
2018-11-23T15:40:38.432Z,37.40
2018-11-23T15:43:08.930Z,38.07
2018-11-23T15:45:37.934Z,37.27
2018-11-23T15:48:07.313Z,31.90
2018-11-23T15:50:37.318Z,40.83
2018-11-23T15:53:07.350Z,37.20
2018-11-23T15:55:36.641Z,32.33
2018-11-23T15:58:07.132Z,37.60
2018-11-23T16:00:38.252Z,40.50
2018-11-23T16:03:08.394Z,37.07
2018-11-23T16:05:37.232Z,41.40
2018-11-23T16:08:08.718Z,37.83
2018-11-23T16:10:38.196Z,37.27
2018-11-23T16:13:11.490Z,38.37
2018-11-23T16:15:37.473Z,36.63
2018-11-23T16:18:06.795Z,36.70
2018-11-23T16:20:37.771Z,36.50
2018-11-23T16:23:08.357Z,38.37
2018-11-23T16:25:37.120Z,41.30
2018-11-23T16:28:07.046Z,35.30
2018-11-23T16:30:37.480Z,38.08
2018-11-23T16:33:07.841Z,35.43
2018-11-23T16:35:38.075Z,41.80
2018-11-23T16:38:08.708Z,40.50
2018-11-23T16:40:38.925Z,42.70
2018-11-23T16:43:09.107Z,41.03
2018-11-23T16:45:38.589Z,43.90
2018-11-23T16:48:08.425Z,42.47
2018-11-23T16:50:37.244Z,39.43
2018-11-23T16:53:15.873Z,38.42
2018-11-23T16:55:44.701Z,40.73
2018-11-23T16:58:14.177Z,41.17
2018-11-23T17:01:01.193Z,42.03
2018-11-23T17:03:29.919Z,42.05
2018-11-23T17:05:58.617Z,40.93
2018-11-23T17:08:27.326Z,45.17
2018-11-23T17:10:56.044Z,40.33
2018-11-23T17:13:24.740Z,44.27
2018-11-23T17:15:53.512Z,45.67
2018-11-23T17:18:22.360Z,41.02
2018-11-23T17:20:51.348Z,42.60
2018-11-23T17:23:20.092Z,40.60
2018-11-23T17:25:48.810Z,38.75
2018-11-23T17:28:17.505Z,38.27
2018-11-23T17:31:05.064Z,41.97
2018-11-23T17:33:33.985Z,37.25
2018-11-23T17:36:02.689Z,37.70
2018-11-23T17:38:37.611Z,41.43
2018-11-23T17:41:00.878Z,41.73
2018-11-23T17:43:29.616Z,47.23
2018-11-23T17:45:58.777Z,39.63
2018-11-23T17:48:28.419Z,45.03
2018-11-23T17:50:58.619Z,40.97
2018-11-23T17:53:27.338Z,39.37
2018-11-23T17:55:56.096Z,38.30
2018-11-23T17:58:24.827Z,46.07
2018-11-23T18:00:53.938Z,40.53
2018-11-23T18:03:22.648Z,37.87
2018-11-23T18:05:51.352Z,43.47
2018-11-23T18:08:20.091Z,43.23
2018-11-23T18:10:48.828Z,35.67
2018-11-23T18:13:17.555Z,40.23
2018-11-23T18:15:46.269Z,33.77
2018-11-23T18:18:15.365Z,40.53
2018-11-23T18:20:44.373Z,40.87
2018-11-23T18:23:13.085Z,40.43
2018-11-23T18:25:42.142Z,45.80
2018-11-23T18:28:10.884Z,48.37
2018-11-23T18:30:39.613Z,41.77
2018-11-23T18:33:09.823Z,39.43
2018-11-23T18:35:38.521Z,43.70
2018-11-23T18:38:07.223Z,43.00
2018-11-23T18:40:37.278Z,39.47
2018-11-23T18:43:05.234Z,47.60
2018-11-23T18:45:33.985Z,39.53
2018-11-23T18:48:02.689Z,42.97
2018-11-23T18:50:31.400Z,42.20
2018-11-23T18:53:00.115Z,40.60
2018-11-23T18:55:28.823Z,38.47
2018-11-23T18:57:57.906Z,38.17
2018-11-23T19:00:26.622Z,39.53
2018-11-23T19:02:55.333Z,34.47
2018-11-23T19:05:26.686Z,36.83
2018-11-23T19:07:55.425Z,38.20
2018-11-23T19:10:24.132Z,40.77
2018-11-23T19:12:52.856Z,44.93
2018-11-23T19:15:25.410Z,42.30
2018-11-23T19:17:50.445Z,41.17
2018-11-23T19:20:20.370Z,73.43
2018-11-23T19:22:51.072Z,47.43
2018-11-23T19:25:19.817Z,45.48
2018-11-23T19:27:48.539Z,45.63
2018-11-23T19:30:18.469Z,39.53
2018-11-23T19:32:47.569Z,41.97
2018-11-23T19:35:16.279Z,45.78
2018-11-23T19:37:45.262Z,39.57
2018-11-23T19:40:14.835Z,43.13
2018-11-23T19:42:44.435Z,45.00
2018-11-23T19:51:12.197Z,45.00
2018-11-23T19:53:40.913Z,37.53
2018-11-23T19:56:09.657Z,42.15
2018-11-23T19:58:38.844Z,42.03
2018-11-23T20:01:07.589Z,40.97
2018-11-23T20:03:36.278Z,42.90
2018-11-23T20:06:05.168Z,42.87
2018-11-23T20:08:40.405Z,42.13
2018-11-23T20:11:09.351Z,40.45
2018-11-23T20:13:38.085Z,39.73
2018-11-23T20:16:06.806Z,42.50
2018-11-23T20:18:35.509Z,41.23
2018-11-23T20:21:04.756Z,39.07
2018-11-23T20:23:33.630Z,43.53
2018-11-23T20:26:02.337Z,39.17
2018-11-23T20:28:31.069Z,45.37
2018-11-23T20:31:00.000Z,50.13
2018-11-23T20:33:28.701Z,44.03
2018-11-23T20:35:57.440Z,46.60
2018-11-23T20:38:26.178Z,43.40
2018-11-23T20:40:54.892Z,42.00
2018-11-23T20:43:23.627Z,38.93
2018-11-23T20:45:52.343Z,41.97
2018-11-23T20:48:21.044Z,43.23
2018-11-23T20:50:49.786Z,38.33
2018-11-23T20:53:18.501Z,42.95
2018-11-23T20:55:47.208Z,40.07
2018-11-23T20:58:16.291Z,47.30
2018-11-23T21:00:45.490Z,44.37
2018-11-23T21:03:14.182Z,42.87
2018-11-23T21:05:42.933Z,43.17
2018-11-23T21:08:11.625Z,40.50
2018-11-23T21:10:40.332Z,44.33
2018-11-23T21:13:09.028Z,49.95
2018-11-23T21:15:37.736Z,48.03
2018-11-23T21:18:06.950Z,47.27
2018-11-23T21:20:35.676Z,50.73
2018-11-23T21:23:04.853Z,47.83
2018-11-23T21:25:33.570Z,48.53
2018-11-23T21:28:02.266Z,47.97
2018-11-23T21:30:31.059Z,47.43
2018-11-23T21:32:59.756Z,48.57
2018-11-23T21:35:28.517Z,46.20
2018-11-23T21:37:57.225Z,51.17
2018-11-23T21:40:33.516Z,51.97
2018-11-23T21:43:02.218Z,56.70
2018-11-23T21:45:30.933Z,53.83
2018-11-23T21:48:00.905Z,54.00
2018-11-23T21:50:29.649Z,53.33
2018-11-23T21:52:58.376Z,49.97
2018-11-23T21:55:27.104Z,47.07
2018-11-23T21:57:56.570Z,56.93
2018-11-23T22:00:25.285Z,50.67
2018-11-23T22:02:54.364Z,54.40
2018-11-23T22:05:23.228Z,60.40
2018-11-23T22:07:51.959Z,50.23
2018-11-23T22:10:20.940Z,53.53
2018-11-23T22:12:50.590Z,54.17
2018-11-23T22:15:21.463Z,49.45
2018-11-23T22:17:51.254Z,47.57
2018-11-23T22:20:21.079Z,50.20
2018-11-23T22:22:49.875Z,54.33
2018-11-23T22:25:19.887Z,51.75
2018-11-23T22:27:48.793Z,59.63
2018-11-23T22:30:23.205Z,62.20
2018-11-23T22:32:51.994Z,48.77
2018-11-23T22:35:20.981Z,55.13
2018-11-23T22:37:50.098Z,55.78
2018-11-23T22:40:19.865Z,52.65
2018-11-23T22:42:49.690Z,52.70
2018-11-23T22:45:18.416Z,55.30
2018-11-23T22:47:49.110Z,60.07
2018-11-23T22:50:19.964Z,60.97
2018-11-23T22:52:48.717Z,68.73
2018-11-23T22:55:18.130Z,54.98
2018-11-23T22:57:46.884Z,63.97
2018-11-23T23:00:23.617Z,69.53
2018-11-23T23:02:52.349Z,74.03
2018-11-23T23:05:22.414Z,65.78
2018-11-23T23:07:51.397Z,63.80
2018-11-23T23:10:20.398Z,58.50
2018-11-23T23:12:49.731Z,65.03
2018-11-23T23:15:18.665Z,63.90
2018-11-23T23:17:47.395Z,63.97
2018-11-23T23:20:17.301Z,60.97
2018-11-23T23:22:46.042Z,66.60
2018-11-23T23:25:14.774Z,60.75
2018-11-23T23:27:43.652Z,58.47
2018-11-23T23:30:13.702Z,63.15
2018-11-23T23:32:42.481Z,67.63
2018-11-23T23:35:12.133Z,69.87
2018-11-23T23:37:41.288Z,71.93
2018-11-23T23:40:11.147Z,64.00
2018-11-23T23:42:39.843Z,60.93
2018-11-23T23:45:11.636Z,63.43
2018-11-23T23:47:40.373Z,66.07
2018-11-23T23:50:14.115Z,81.22
2018-11-23T23:52:42.865Z,88.42
2018-11-23T23:55:11.606Z,74.87
2018-11-23T23:57:41.309Z,70.17
